Terminal Aerodrome Forecast
Issued by NWS

Home | Current Version | Previous Version | Text Only | Print | Product List | Glossary On
Versions: 1 2 3 4 5 6 7 8 9 10 11 12 13 14 15
000
FTUS45 KGJT 220529
TAFRIL
TAF
KRIL 220529Z 2206/2306 12010KT P6SM SCT200
     FM220800 13004KT P6SM SCT200
     FM221400 VRB03KT P6SM SCT250
     FM222000 23007KT P6SM SCT100 BKN200
     FM230300 11004KT P6SM BKN090=

USA.gov is the U.S. government's official web portal to all federal, state and local government web resources and services.